createdAt,value
2019-05-18T00:00:16.596Z,20.83
2019-05-18T00:04:40.853Z,20.17
2019-05-18T00:09:07.323Z,21.97
2019-05-18T00:13:31.921Z,21.40
2019-05-18T00:17:55.760Z,18.83
2019-05-18T00:22:19.963Z,18.23
2019-05-18T00:26:44.352Z,18.30
2019-05-18T00:31:08.342Z,17.83
2019-05-18T00:35:32.553Z,18.60
2019-05-18T00:39:56.707Z,19.93
2019-05-18T00:44:20.929Z,19.23
2019-05-18T00:48:45.442Z,19.57
2019-05-18T00:53:10.021Z,19.25
2019-05-18T00:57:35.379Z,18.40
2019-05-18T01:02:00.158Z,20.00
2019-05-18T01:06:24.029Z,20.12
2019-05-18T01:10:47.923Z,20.87
2019-05-18T01:15:12.921Z,21.83
2019-05-18T01:19:36.923Z,19.63
2019-05-18T01:24:00.906Z,22.27
2019-05-18T01:28:24.994Z,24.13
2019-05-18T01:32:49.317Z,20.47
2019-05-18T01:37:13.443Z,24.60
2019-05-18T01:41:37.574Z,21.40
2019-05-18T01:46:01.461Z,23.00
2019-05-18T01:50:25.362Z,23.18
2019-05-18T01:54:49.307Z,20.90
2019-05-18T01:59:13.430Z,26.73
2019-05-18T02:03:37.624Z,21.83
2019-05-18T02:08:01.811Z,22.47
2019-05-18T02:12:25.687Z,24.30
2019-05-18T02:16:49.903Z,23.07
2019-05-18T02:21:13.761Z,22.48
2019-05-18T02:25:37.664Z,22.70
2019-05-18T02:30:02.012Z,22.20
2019-05-18T02:34:26.053Z,21.57
2019-05-18T02:38:50.342Z,22.80
2019-05-18T02:43:15.893Z,20.37
2019-05-18T02:47:40.846Z,22.57
2019-05-18T02:52:06.300Z,21.40
2019-05-18T02:56:31.685Z,21.90
2019-05-18T03:00:55.939Z,20.23
2019-05-18T03:05:20.075Z,22.75
2019-05-18T03:09:44.345Z,23.87
2019-05-18T03:14:08.765Z,22.57
2019-05-18T03:18:33.101Z,21.60
2019-05-18T03:22:57.574Z,24.70
2019-05-18T03:27:21.899Z,24.52
2019-05-18T03:31:45.781Z,23.60
2019-05-18T03:36:10.902Z,24.30
2019-05-18T03:40:34.909Z,26.60
2019-05-18T03:44:59.067Z,28.17
2019-05-18T03:49:27.493Z,25.27
2019-05-18T03:53:48.892Z,27.00
2019-05-18T03:58:12.775Z,28.33
2019-05-18T04:02:36.679Z,25.63
2019-05-18T04:07:00.562Z,27.80
2019-05-18T04:11:24.413Z,24.73
2019-05-18T04:15:49.248Z,28.03
2019-05-18T04:20:13.482Z,24.47
2019-05-18T04:24:37.619Z,24.70
2019-05-18T04:29:01.631Z,27.13
2019-05-18T04:33:27.689Z,27.87
2019-05-18T04:37:52.037Z,29.03
2019-05-18T04:42:16.042Z,24.57
2019-05-18T04:46:40.432Z,27.80
2019-05-18T04:51:04.419Z,27.00
2019-05-18T04:55:28.820Z,26.20
2019-05-18T04:59:53.006Z,28.57
2019-05-18T05:04:17.582Z,26.97
2019-05-18T05:08:41.730Z,27.47
2019-05-18T05:13:06.205Z,26.07
2019-05-18T05:17:30.071Z,32.50
2019-05-18T05:21:54.697Z,31.20
2019-05-18T05:26:18.787Z,29.57
2019-05-18T05:30:42.751Z,31.70
2019-05-18T05:35:07.986Z,28.07
2019-05-18T05:39:31.810Z,32.27
2019-05-18T05:43:55.633Z,34.00
2019-05-18T05:48:19.745Z,31.70
2019-05-18T05:52:43.757Z,32.13
2019-05-18T05:57:07.960Z,29.87
2019-05-18T06:01:31.998Z,28.90
2019-05-18T06:05:55.893Z,29.77
2019-05-18T06:10:20.237Z,27.47
2019-05-18T06:14:44.282Z,25.67
2019-05-18T06:19:08.168Z,27.40
2019-05-18T06:23:32.046Z,25.80
2019-05-18T06:27:57.214Z,24.83
2019-05-18T06:32:23.943Z,20.55
2019-05-18T06:36:48.014Z,21.63
2019-05-18T06:41:11.884Z,25.35
2019-05-18T06:45:36.056Z,21.13
2019-05-18T06:49:59.974Z,20.57
2019-05-18T06:54:24.241Z,20.80
2019-05-18T06:58:49.607Z,22.37
2019-05-18T07:03:13.785Z,22.43
2019-05-18T07:07:37.653Z,19.53
2019-05-18T07:12:01.987Z,17.07
2019-05-18T07:16:26.058Z,18.53
2019-05-18T07:20:51.164Z,20.43
2019-05-18T07:25:15.297Z,18.43
2019-05-18T07:29:39.230Z,21.30
2019-05-18T07:34:03.442Z,19.70
2019-05-18T07:38:27.933Z,18.30
2019-05-18T07:42:52.119Z,20.10
2019-05-18T07:47:16.323Z,18.50
2019-05-18T07:51:40.200Z,19.03
2019-05-18T07:56:06.005Z,19.20
2019-05-18T08:00:30.196Z,18.50
2019-05-18T08:04:54.313Z,16.93
2019-05-18T08:09:18.206Z,16.67
2019-05-18T08:13:42.534Z,16.83
2019-05-18T08:18:07.051Z,15.73
2019-05-18T08:22:31.073Z,15.33
2019-05-18T08:26:54.981Z,15.13
2019-05-18T08:31:18.885Z,18.17
2019-05-18T08:35:42.740Z,14.53
2019-05-18T08:40:07.152Z,13.93
2019-05-18T08:44:32.053Z,13.90
2019-05-18T08:48:55.868Z,13.43
2019-05-18T08:53:23.754Z,13.00
2019-05-18T08:57:47.958Z,12.30
2019-05-18T09:02:11.890Z,14.23
2019-05-18T09:06:35.782Z,13.03
2019-05-18T09:10:59.663Z,83.17
2019-05-18T09:15:24.859Z,13.10
2019-05-18T09:19:48.974Z,12.23
2019-05-18T09:24:13.490Z,11.57
2019-05-18T09:28:37.683Z,15.60
2019-05-18T09:33:01.858Z,11.67
2019-05-18T09:37:25.824Z,11.97
2019-05-18T09:41:50.041Z,12.70
2019-05-18T09:46:13.849Z,13.47
2019-05-18T09:50:37.677Z,13.47
2019-05-18T09:55:02.699Z,12.53
2019-05-18T09:59:26.732Z,11.60
2019-05-18T10:03:50.776Z,12.80
2019-05-18T10:08:15.161Z,11.80
2019-05-18T10:12:39.292Z,13.13
2019-05-18T10:17:03.506Z,11.77
2019-05-18T10:21:27.486Z,12.63
2019-05-18T10:25:51.864Z,11.70
2019-05-18T10:30:16.244Z,10.70
2019-05-18T10:34:40.882Z,11.43
2019-05-18T10:39:07.138Z,9.90
2019-05-18T10:43:32.271Z,10.33
2019-05-18T10:47:56.567Z,9.53
2019-05-18T10:52:22.265Z,11.23
2019-05-18T10:56:46.441Z,9.63
2019-05-18T11:01:15.413Z,10.80
2019-05-18T11:05:58.617Z,8.80
2019-05-18T11:10:46.163Z,10.83
2019-05-18T11:15:29.199Z,7.33
2019-05-18T11:20:15.399Z,8.03
2019-05-18T11:24:59.257Z,8.80
2019-05-18T11:29:43.123Z,7.12
2019-05-18T11:34:27.044Z,6.63
2019-05-18T11:39:09.018Z,8.10
2019-05-18T11:43:49.328Z,6.70
2019-05-18T11:48:20.584Z,8.60
2019-05-18T11:52:44.415Z,8.60
2019-05-18T11:57:17.750Z,8.50
2019-05-18T12:01:42.066Z,7.93
2019-05-18T12:06:16.094Z,6.73
2019-05-18T12:10:40.903Z,7.13
2019-05-18T12:15:23.267Z,6.90
2019-05-18T12:19:47.407Z,6.67
2019-05-18T12:24:15.328Z,8.08
2019-05-18T12:28:37.944Z,6.93
2019-05-18T12:33:02.832Z,6.70
2019-05-18T12:37:27.878Z,7.00
2019-05-18T12:41:51.811Z,7.50
2019-05-18T12:46:20.952Z,6.37
2019-05-18T12:50:45.059Z,7.30
2019-05-18T12:55:09.717Z,6.10
2019-05-18T12:59:33.799Z,5.90
2019-05-18T13:04:02.169Z,6.10
2019-05-18T13:08:26.441Z,5.27
2019-05-18T13:12:50.457Z,4.77
2019-05-18T13:17:14.822Z,4.60
2019-05-18T13:21:38.952Z,4.50
2019-05-18T13:26:03.921Z,4.60
2019-05-18T13:30:30.013Z,4.13
2019-05-18T13:34:54.679Z,4.33
2019-05-18T13:39:19.185Z,4.67
2019-05-18T13:43:44.067Z,4.20
2019-05-18T13:48:08.257Z,3.90
2019-05-18T13:52:32.366Z,4.83
2019-05-18T13:56:56.426Z,4.87
2019-05-18T14:01:20.889Z,4.42
2019-05-18T14:05:50.520Z,5.00
2019-05-18T14:10:15.031Z,5.17
2019-05-18T14:14:47.634Z,4.83
2019-05-18T14:19:12.270Z,4.40
2019-05-18T14:23:36.702Z,3.90
2019-05-18T14:28:00.817Z,3.77
2019-05-18T14:32:26.134Z,4.60
2019-05-18T14:36:50.657Z,5.03
2019-05-18T14:41:20.405Z,5.07
2019-05-18T14:45:44.515Z,5.27
2019-05-18T14:50:09.130Z,4.50
2019-05-18T14:54:38.848Z,5.27
2019-05-18T14:59:03.846Z,5.43
2019-05-18T15:03:28.031Z,5.80
2019-05-18T15:07:52.272Z,5.37
2019-05-18T15:12:16.795Z,5.62
2019-05-18T15:16:52.969Z,4.50
2019-05-18T15:21:18.080Z,4.70
2019-05-18T15:26:07.941Z,4.33
2019-05-18T15:30:32.831Z,4.50
2019-05-18T15:34:58.233Z,4.30
2019-05-18T15:39:22.427Z,4.75
2019-05-18T15:43:46.633Z,4.47
2019-05-18T15:48:11.828Z,7.03
2019-05-18T15:52:37.622Z,7.73
2019-05-18T15:57:01.645Z,4.80
2019-05-18T16:01:25.930Z,5.23
2019-05-18T16:05:50.149Z,4.43
2019-05-18T16:10:15.842Z,4.40
2019-05-18T16:14:43.652Z,4.67
2019-05-18T16:19:08.611Z,4.67
2019-05-18T16:23:32.925Z,5.03
2019-05-18T16:27:57.856Z,4.70
2019-05-18T16:32:21.987Z,7.67
2019-05-18T16:36:47.391Z,5.23
2019-05-18T16:41:11.587Z,7.03
2019-05-18T16:45:36.824Z,7.47
2019-05-18T16:50:01.865Z,11.27
2019-05-18T16:54:26.395Z,7.57
2019-05-18T16:58:50.822Z,7.43
2019-05-18T17:03:16.319Z,6.08
2019-05-18T17:07:40.505Z,4.87
2019-05-18T17:12:05.854Z,5.70
2019-05-18T17:16:30.055Z,6.63
2019-05-18T17:20:54.209Z,5.40
2019-05-18T17:25:18.508Z,5.20
2019-05-18T17:29:42.629Z,5.73
2019-05-18T17:34:08.977Z,6.00
2019-05-18T17:38:32.851Z,7.50
2019-05-18T17:42:57.066Z,7.53
2019-05-18T17:47:20.948Z,6.80
2019-05-18T17:51:45.130Z,8.10
2019-05-18T17:56:09.263Z,7.13
2019-05-18T18:00:33.297Z,7.13
2019-05-18T18:04:57.461Z,6.90
2019-05-18T18:09:22.285Z,5.57
2019-05-18T18:13:47.031Z,6.10
2019-05-18T18:18:11.206Z,6.43
2019-05-18T18:22:35.475Z,5.97
2019-05-18T18:26:59.966Z,6.43
2019-05-18T18:31:24.788Z,7.47
2019-05-18T18:35:48.901Z,5.63
2019-05-18T18:40:13.486Z,6.17
2019-05-18T18:44:37.593Z,6.90
2019-05-18T18:49:01.769Z,5.80
2019-05-18T18:53:26.584Z,5.67
2019-05-18T18:57:50.797Z,6.87
2019-05-18T19:02:15.306Z,6.63
2019-05-18T19:06:39.514Z,8.47
2019-05-18T19:11:04.008Z,11.10
2019-05-18T19:15:29.505Z,12.00
2019-05-18T19:19:53.616Z,12.47
2019-05-18T19:24:17.859Z,11.07
2019-05-18T19:28:42.571Z,10.80
2019-05-18T19:33:06.803Z,8.53
2019-05-18T19:37:31.294Z,10.20
2019-05-18T19:41:55.489Z,9.37
2019-05-18T19:46:19.694Z,9.83
2019-05-18T19:50:45.021Z,9.27
2019-05-18T19:55:17.369Z,9.57
2019-05-18T19:59:41.492Z,10.67
2019-05-18T20:04:06.226Z,8.73
2019-05-18T20:08:31.323Z,9.17
2019-05-18T20:12:55.602Z,10.27
2019-05-18T20:17:19.860Z,10.28
2019-05-18T20:21:44.934Z,9.70
2019-05-18T20:26:08.815Z,8.17
2019-05-18T20:30:32.797Z,7.03
2019-05-18T20:34:57.142Z,8.17
2019-05-18T20:39:21.384Z,9.63
2019-05-18T20:43:45.597Z,10.10
2019-05-18T20:48:09.901Z,8.93
2019-05-18T20:52:33.961Z,12.63
2019-05-18T20:56:57.830Z,11.60
2019-05-18T21:01:22.040Z,11.40
2019-05-18T21:05:46.843Z,11.57
2019-05-18T21:10:12.397Z,12.78
2019-05-18T21:14:36.776Z,14.57
2019-05-18T21:19:06.596Z,14.97
2019-05-18T21:23:30.748Z,15.77
2019-05-18T21:27:54.888Z,14.13
2019-05-18T21:32:21.831Z,13.45
2019-05-18T21:36:45.720Z,14.93
2019-05-18T21:41:09.593Z,13.53
2019-05-18T21:45:34.348Z,14.57
2019-05-18T21:49:58.668Z,15.00
2019-05-18T21:54:23.714Z,14.77
2019-05-18T21:58:47.848Z,16.73
2019-05-18T22:03:12.723Z,16.87
2019-05-18T22:07:36.514Z,16.57
2019-05-18T22:12:00.806Z,16.23
2019-05-18T22:16:24.940Z,16.37
2019-05-18T22:20:49.562Z,16.93
2019-05-18T22:25:13.693Z,17.15
2019-05-18T22:29:38.495Z,17.67
2019-05-18T22:34:04.123Z,17.20
2019-05-18T22:38:28.717Z,17.27
2019-05-18T22:42:53.841Z,17.50
2019-05-18T22:47:18.023Z,15.87
2019-05-18T22:51:42.291Z,15.90
2019-05-18T22:56:07.731Z,18.77
2019-05-18T23:00:31.976Z,19.87
2019-05-18T23:04:56.027Z,17.67
2019-05-18T23:09:20.069Z,21.43
2019-05-18T23:13:44.406Z,20.62
2019-05-18T23:18:08.633Z,19.70
2019-05-18T23:22:32.496Z,19.27
2019-05-18T23:26:56.535Z,18.57
2019-05-18T23:31:21.839Z,22.70
2019-05-18T23:35:46.184Z,23.23
2019-05-18T23:40:10.336Z,22.80
2019-05-18T23:44:34.818Z,20.87
2019-05-18T23:49:10.031Z,21.33
2019-05-18T23:53:25.530Z,22.03
2019-05-18T23:57:50.640Z,21.43
